sensor_id;sensor_type;location;lat;lon;timestamp;P1;durP1;ratioP1;P2;durP2;ratioP2
77740;SDS011;66919;51.006;4.630;2023-02-23T00:01:43;96.07;;;48.55;;
77740;SDS011;66919;51.006;4.630;2023-02-23T00:04:09;116.07;;;64.22;;
77740;SDS011;66919;51.006;4.630;2023-02-23T00:06:35;96.07;;;48.70;;
77740;SDS011;66919;51.006;4.630;2023-02-23T00:09:02;91.68;;;44.65;;
77740;SDS011;66919;51.006;4.630;2023-02-23T00:11:37;90.15;;;45.03;;
77740;SDS011;66919;51.006;4.630;2023-02-23T00:14:02;86.97;;;42.58;;
77740;SDS011;66919;51.006;4.630;2023-02-23T00:16:28;81.40;;;43.95;;
77740;SDS011;66919;51.006;4.630;2023-02-23T00:18:55;85.35;;;45.50;;
77740;SDS011;66919;51.006;4.630;2023-02-23T00:21:30;88.68;;;47.03;;
77740;SDS011;66919;51.006;4.630;2023-02-23T00:24:09;86.90;;;43.22;;
77740;SDS011;66919;51.006;4.630;2023-02-23T00:26:39;83.93;;;44.70;;
77740;SDS011;66919;51.006;4.630;2023-02-23T00:29:07;80.93;;;41.97;;
77740;SDS011;66919;51.006;4.630;2023-02-23T00:31:36;89.80;;;47.03;;
77740;SDS011;66919;51.006;4.630;2023-02-23T00:34:02;93.05;;;51.53;;
77740;SDS011;66919;51.006;4.630;2023-02-23T00:36:32;82.15;;;46.22;;
77740;SDS011;66919;51.006;4.630;2023-02-23T00:38:59;86.22;;;43.60;;
77740;SDS011;66919;51.006;4.630;2023-02-23T00:41:27;77.65;;;43.58;;
77740;SDS011;66919;51.006;4.630;2023-02-23T00:43:57;93.60;;;48.78;;
77740;SDS011;66919;51.006;4.630;2023-02-23T00:46:24;99.55;;;51.20;;
77740;SDS011;66919;51.006;4.630;2023-02-23T00:48:52;84.53;;;45.05;;
77740;SDS011;66919;51.006;4.630;2023-02-23T00:51:22;85.20;;;43.83;;
77740;SDS011;66919;51.006;4.630;2023-02-23T00:53:55;78.68;;;42.30;;
77740;SDS011;66919;51.006;4.630;2023-02-23T00:56:22;79.43;;;43.22;;
77740;SDS011;66919;51.006;4.630;2023-02-23T00:58:48;80.63;;;44.47;;
77740;SDS011;66919;51.006;4.630;2023-02-23T01:01:14;78.03;;;42.45;;
77740;SDS011;66919;51.006;4.630;2023-02-23T01:03:40;76.00;;;41.30;;
77740;SDS011;66919;51.006;4.630;2023-02-23T01:06:08;76.75;;;42.13;;
77740;SDS011;66919;51.006;4.630;2023-02-23T01:08:37;73.03;;;41.13;;
77740;SDS011;66919;51.006;4.630;2023-02-23T01:11:05;70.07;;;41.00;;
77740;SDS011;66919;51.006;4.630;2023-02-23T01:13:33;78.00;;;41.25;;
77740;SDS011;66919;51.006;4.630;2023-02-23T01:15:59;78.05;;;43.35;;
77740;SDS011;66919;51.006;4.630;2023-02-23T01:18:27;76.97;;;42.72;;
77740;SDS011;66919;51.006;4.630;2023-02-23T01:20:53;65.32;;;38.88;;
77740;SDS011;66919;51.006;4.630;2023-02-23T01:23:18;70.88;;;39.70;;
77740;SDS011;66919;51.006;4.630;2023-02-23T01:25:44;66.20;;;37.90;;
77740;SDS011;66919;51.006;4.630;2023-02-23T01:28:10;67.90;;;39.20;;
77740;SDS011;66919;51.006;4.630;2023-02-23T01:30:37;70.25;;;38.97;;
77740;SDS011;66919;51.006;4.630;2023-02-23T01:33:03;75.22;;;39.90;;
77740;SDS011;66919;51.006;4.630;2023-02-23T01:35:29;73.78;;;40.15;;
77740;SDS011;66919;51.006;4.630;2023-02-23T01:37:57;69.30;;;37.10;;
77740;SDS011;66919;51.006;4.630;2023-02-23T01:40:23;64.57;;;36.72;;
77740;SDS011;66919;51.006;4.630;2023-02-23T01:42:58;64.53;;;36.65;;
77740;SDS011;66919;51.006;4.630;2023-02-23T01:45:36;65.07;;;37.83;;
77740;SDS011;66919;51.006;4.630;2023-02-23T01:48:10;61.95;;;35.42;;
77740;SDS011;66919;51.006;4.630;2023-02-23T01:53:30;56.70;;;32.88;;
77740;SDS011;66919;51.006;4.630;2023-02-23T01:56:00;55.58;;;33.80;;
77740;SDS011;66919;51.006;4.630;2023-02-23T01:58:35;54.80;;;33.47;;
77740;SDS011;66919;51.006;4.630;2023-02-23T02:01:07;58.13;;;33.70;;
77740;SDS011;66919;51.006;4.630;2023-02-23T02:06:22;52.85;;;32.55;;
77740;SDS011;66919;51.006;4.630;2023-02-23T02:08:54;56.40;;;33.72;;
77740;SDS011;66919;51.006;4.630;2023-02-23T02:11:23;54.20;;;33.90;;
77740;SDS011;66919;51.006;4.630;2023-02-23T02:14:09;50.78;;;32.25;;
77740;SDS011;66919;51.006;4.630;2023-02-23T02:25:54;51.17;;;32.17;;
77740;SDS011;66919;51.006;4.630;2023-02-23T02:42:47;53.65;;;31.23;;
77740;SDS011;66919;51.006;4.630;2023-02-23T02:56:21;70.70;;;35.83;;
77740;SDS011;66919;51.006;4.630;2023-02-23T02:58:50;71.57;;;34.92;;
77740;SDS011;66919;51.006;4.630;2023-02-23T03:01:17;77.22;;;34.10;;
77740;SDS011;66919;51.006;4.630;2023-02-23T03:07:19;70.47;;;31.95;;
77740;SDS011;66919;51.006;4.630;2023-02-23T03:13:19;71.80;;;31.77;;
77740;SDS011;66919;51.006;4.630;2023-02-23T03:16:20;62.25;;;31.75;;
77740;SDS011;66919;51.006;4.630;2023-02-23T03:19:17;69.97;;;33.00;;
77740;SDS011;66919;51.006;4.630;2023-02-23T03:22:11;77.45;;;34.25;;
77740;SDS011;66919;51.006;4.630;2023-02-23T03:28:11;68.43;;;32.83;;
77740;SDS011;66919;51.006;4.630;2023-02-23T03:37:09;62.50;;;27.25;;
77740;SDS011;66919;51.006;4.630;2023-02-23T03:40:01;65.37;;;27.23;;
77740;SDS011;66919;51.006;4.630;2023-02-23T03:42:52;55.88;;;24.17;;
77740;SDS011;66919;51.006;4.630;2023-02-23T03:45:39;61.08;;;25.08;;
77740;SDS011;66919;51.006;4.630;2023-02-23T03:48:23;52.53;;;22.23;;
77740;SDS011;66919;51.006;4.630;2023-02-23T03:51:10;55.78;;;25.33;;
77740;SDS011;66919;51.006;4.630;2023-02-23T03:56:40;60.63;;;24.98;;
77740;SDS011;66919;51.006;4.630;2023-02-23T03:59:30;51.60;;;23.55;;
77740;SDS011;66919;51.006;4.630;2023-02-23T04:02:18;56.88;;;24.42;;
77740;SDS011;66919;51.006;4.630;2023-02-23T04:05:05;54.35;;;23.73;;
77740;SDS011;66919;51.006;4.630;2023-02-23T04:07:53;58.58;;;25.75;;
77740;SDS011;66919;51.006;4.630;2023-02-23T04:10:40;55.97;;;25.05;;
77740;SDS011;66919;51.006;4.630;2023-02-23T04:13:31;58.67;;;24.33;;
77740;SDS011;66919;51.006;4.630;2023-02-23T04:15:59;61.83;;;25.30;;
77740;SDS011;66919;51.006;4.630;2023-02-23T04:18:33;70.13;;;27.27;;
77740;SDS011;66919;51.006;4.630;2023-02-23T04:21:01;61.78;;;26.80;;
77740;SDS011;66919;51.006;4.630;2023-02-23T04:23:27;64.03;;;27.15;;
77740;SDS011;66919;51.006;4.630;2023-02-23T04:25:53;62.17;;;25.65;;
77740;SDS011;66919;51.006;4.630;2023-02-23T04:28:20;66.50;;;26.08;;
77740;SDS011;66919;51.006;4.630;2023-02-23T04:30:47;64.78;;;28.67;;
77740;SDS011;66919;51.006;4.630;2023-02-23T04:33:14;61.47;;;27.50;;
77740;SDS011;66919;51.006;4.630;2023-02-23T04:35:40;73.97;;;29.75;;
77740;SDS011;66919;51.006;4.630;2023-02-23T04:38:05;69.40;;;27.67;;
77740;SDS011;66919;51.006;4.630;2023-02-23T04:40:31;66.22;;;27.33;;
77740;SDS011;66919;51.006;4.630;2023-02-23T04:42:57;64.28;;;27.73;;
77740;SDS011;66919;51.006;4.630;2023-02-23T04:45:23;67.13;;;29.00;;
77740;SDS011;66919;51.006;4.630;2023-02-23T04:47:49;60.38;;;26.95;;
77740;SDS011;66919;51.006;4.630;2023-02-23T04:50:15;58.55;;;26.30;;
77740;SDS011;66919;51.006;4.630;2023-02-23T04:52:41;59.17;;;27.13;;
77740;SDS011;66919;51.006;4.630;2023-02-23T04:55:08;68.15;;;28.17;;
77740;SDS011;66919;51.006;4.630;2023-02-23T04:57:40;62.95;;;27.92;;
77740;SDS011;66919;51.006;4.630;2023-02-23T05:00:06;66.60;;;29.65;;
77740;SDS011;66919;51.006;4.630;2023-02-23T05:02:33;67.43;;;29.42;;
77740;SDS011;66919;51.006;4.630;2023-02-23T05:04:58;69.68;;;28.88;;
77740;SDS011;66919;51.006;4.630;2023-02-23T05:07:24;71.03;;;30.90;;
77740;SDS011;66919;51.006;4.630;2023-02-23T05:09:50;64.50;;;28.15;;
77740;SDS011;66919;51.006;4.630;2023-02-23T05:12:15;69.35;;;29.48;;
77740;SDS011;66919;51.006;4.630;2023-02-23T05:14:41;76.80;;;28.98;;
77740;SDS011;66919;51.006;4.630;2023-02-23T05:17:07;69.68;;;30.38;;
77740;SDS011;66919;51.006;4.630;2023-02-23T05:19:33;74.55;;;32.03;;
77740;SDS011;66919;51.006;4.630;2023-02-23T05:21:59;74.10;;;31.38;;
77740;SDS011;66919;51.006;4.630;2023-02-23T05:24:25;74.13;;;31.35;;
77740;SDS011;66919;51.006;4.630;2023-02-23T05:26:50;77.35;;;32.20;;
77740;SDS011;66919;51.006;4.630;2023-02-23T05:29:16;70.80;;;30.95;;
77740;SDS011;66919;51.006;4.630;2023-02-23T05:31:43;74.05;;;31.75;;
77740;SDS011;66919;51.006;4.630;2023-02-23T05:34:08;74.65;;;31.40;;
77740;SDS011;66919;51.006;4.630;2023-02-23T05:36:34;72.00;;;32.67;;
77740;SDS011;66919;51.006;4.630;2023-02-23T05:39:01;78.78;;;32.80;;
77740;SDS011;66919;51.006;4.630;2023-02-23T05:41:27;79.75;;;32.38;;
77740;SDS011;66919;51.006;4.630;2023-02-23T05:43:53;72.18;;;31.17;;
77740;SDS011;66919;51.006;4.630;2023-02-23T05:46:20;72.15;;;32.47;;
77740;SDS011;66919;51.006;4.630;2023-02-23T05:48:48;76.28;;;33.78;;
77740;SDS011;66919;51.006;4.630;2023-02-23T05:51:15;69.03;;;29.80;;
77740;SDS011;66919;51.006;4.630;2023-02-23T05:53:41;73.10;;;31.27;;
77740;SDS011;66919;51.006;4.630;2023-02-23T05:56:10;68.68;;;29.15;;
77740;SDS011;66919;51.006;4.630;2023-02-23T05:58:38;77.63;;;33.10;;
77740;SDS011;66919;51.006;4.630;2023-02-23T06:01:03;78.35;;;32.45;;
77740;SDS011;66919;51.006;4.630;2023-02-23T06:03:29;80.72;;;33.03;;
77740;SDS011;66919;51.006;4.630;2023-02-23T06:05:55;82.78;;;33.70;;
77740;SDS011;66919;51.006;4.630;2023-02-23T06:08:23;73.82;;;33.05;;
77740;SDS011;66919;51.006;4.630;2023-02-23T06:10:49;79.03;;;31.98;;
77740;SDS011;66919;51.006;4.630;2023-02-23T06:13:15;76.38;;;32.30;;
77740;SDS011;66919;51.006;4.630;2023-02-23T06:15:41;78.10;;;32.17;;
77740;SDS011;66919;51.006;4.630;2023-02-23T06:18:08;85.22;;;32.78;;
77740;SDS011;66919;51.006;4.630;2023-02-23T06:20:34;70.53;;;30.77;;
77740;SDS011;66919;51.006;4.630;2023-02-23T06:23:00;73.55;;;32.63;;
77740;SDS011;66919;51.006;4.630;2023-02-23T06:25:26;72.57;;;31.90;;
77740;SDS011;66919;51.006;4.630;2023-02-23T06:27:51;76.22;;;31.08;;
77740;SDS011;66919;51.006;4.630;2023-02-23T06:30:19;73.35;;;30.60;;
77740;SDS011;66919;51.006;4.630;2023-02-23T06:32:45;69.88;;;30.60;;
77740;SDS011;66919;51.006;4.630;2023-02-23T06:35:10;72.45;;;32.28;;
77740;SDS011;66919;51.006;4.630;2023-02-23T06:37:36;72.82;;;32.13;;
77740;SDS011;66919;51.006;4.630;2023-02-23T06:40:03;74.35;;;31.10;;
77740;SDS011;66919;51.006;4.630;2023-02-23T06:42:29;71.05;;;31.23;;
77740;SDS011;66919;51.006;4.630;2023-02-23T06:44:54;74.55;;;32.15;;
77740;SDS011;66919;51.006;4.630;2023-02-23T06:47:20;72.78;;;32.63;;
77740;SDS011;66919;51.006;4.630;2023-02-23T06:49:46;77.75;;;32.72;;
77740;SDS011;66919;51.006;4.630;2023-02-23T06:52:11;76.13;;;31.75;;
77740;SDS011;66919;51.006;4.630;2023-02-23T06:54:38;77.38;;;32.67;;
77740;SDS011;66919;51.006;4.630;2023-02-23T06:57:05;73.57;;;31.40;;
77740;SDS011;66919;51.006;4.630;2023-02-23T06:59:32;76.95;;;32.08;;
77740;SDS011;66919;51.006;4.630;2023-02-23T07:01:57;77.05;;;33.75;;
77740;SDS011;66919;51.006;4.630;2023-02-23T07:04:23;76.57;;;34.30;;
77740;SDS011;66919;51.006;4.630;2023-02-23T07:06:49;77.13;;;33.97;;
77740;SDS011;66919;51.006;4.630;2023-02-23T07:09:15;71.63;;;31.52;;
77740;SDS011;66919;51.006;4.630;2023-02-23T07:11:41;71.03;;;30.95;;
77740;SDS011;66919;51.006;4.630;2023-02-23T07:14:09;69.45;;;31.88;;
77740;SDS011;66919;51.006;4.630;2023-02-23T07:16:35;66.60;;;28.92;;
77740;SDS011;66919;51.006;4.630;2023-02-23T07:19:02;66.63;;;28.80;;
77740;SDS011;66919;51.006;4.630;2023-02-23T07:21:29;63.72;;;29.77;;
77740;SDS011;66919;51.006;4.630;2023-02-23T07:23:56;63.13;;;30.27;;
77740;SDS011;66919;51.006;4.630;2023-02-23T07:26:22;70.40;;;30.48;;
77740;SDS011;66919;51.006;4.630;2023-02-23T07:28:48;69.85;;;32.42;;
77740;SDS011;66919;51.006;4.630;2023-02-23T07:31:13;73.15;;;31.58;;
77740;SDS011;66919;51.006;4.630;2023-02-23T07:33:39;74.38;;;33.15;;
77740;SDS011;66919;51.006;4.630;2023-02-23T07:36:05;68.00;;;30.05;;
77740;SDS011;66919;51.006;4.630;2023-02-23T07:38:31;82.72;;;33.53;;
77740;SDS011;66919;51.006;4.630;2023-02-23T07:40:56;74.20;;;32.65;;
77740;SDS011;66919;51.006;4.630;2023-02-23T07:43:22;72.80;;;32.42;;
77740;SDS011;66919;51.006;4.630;2023-02-23T07:45:48;75.10;;;33.70;;
77740;SDS011;66919;51.006;4.630;2023-02-23T07:48:15;72.72;;;33.80;;
77740;SDS011;66919;51.006;4.630;2023-02-23T07:50:42;80.28;;;34.88;;
77740;SDS011;66919;51.006;4.630;2023-02-23T07:53:07;85.57;;;36.90;;
77740;SDS011;66919;51.006;4.630;2023-02-23T07:55:33;77.13;;;35.25;;
77740;SDS011;66919;51.006;4.630;2023-02-23T07:58:00;84.97;;;34.25;;
77740;SDS011;66919;51.006;4.630;2023-02-23T08:00:25;81.80;;;35.45;;
77740;SDS011;66919;51.006;4.630;2023-02-23T08:02:51;76.47;;;32.15;;
77740;SDS011;66919;51.006;4.630;2023-02-23T08:05:17;75.55;;;33.17;;
77740;SDS011;66919;51.006;4.630;2023-02-23T08:07:43;80.32;;;33.20;;
77740;SDS011;66919;51.006;4.630;2023-02-23T08:10:09;80.13;;;33.45;;
77740;SDS011;66919;51.006;4.630;2023-02-23T08:12:36;81.63;;;33.83;;
77740;SDS011;66919;51.006;4.630;2023-02-23T08:15:02;79.80;;;32.38;;
77740;SDS011;66919;51.006;4.630;2023-02-23T08:17:32;81.60;;;35.67;;
77740;SDS011;66919;51.006;4.630;2023-02-23T08:19:59;86.22;;;36.55;;
77740;SDS011;66919;51.006;4.630;2023-02-23T08:22:25;82.47;;;37.45;;
77740;SDS011;66919;51.006;4.630;2023-02-23T08:24:51;84.93;;;36.53;;
77740;SDS011;66919;51.006;4.630;2023-02-23T08:27:17;85.00;;;35.50;;
77740;SDS011;66919;51.006;4.630;2023-02-23T08:29:43;81.68;;;35.53;;
77740;SDS011;66919;51.006;4.630;2023-02-23T08:32:09;104.47;;;49.03;;
77740;SDS011;66919;51.006;4.630;2023-02-23T08:34:41;81.15;;;34.90;;
77740;SDS011;66919;51.006;4.630;2023-02-23T08:37:08;76.68;;;33.63;;
77740;SDS011;66919;51.006;4.630;2023-02-23T08:39:34;80.88;;;34.63;;
77740;SDS011;66919;51.006;4.630;2023-02-23T08:42:00;78.25;;;33.60;;
77740;SDS011;66919;51.006;4.630;2023-02-23T08:44:26;77.25;;;33.83;;
77740;SDS011;66919;51.006;4.630;2023-02-23T08:46:52;77.47;;;33.35;;
77740;SDS011;66919;51.006;4.630;2023-02-23T08:49:19;77.00;;;33.80;;
77740;SDS011;66919;51.006;4.630;2023-02-23T08:51:48;75.28;;;32.97;;
77740;SDS011;66919;51.006;4.630;2023-02-23T08:54:14;79.88;;;35.15;;
77740;SDS011;66919;51.006;4.630;2023-02-23T08:56:41;75.20;;;33.22;;
77740;SDS011;66919;51.006;4.630;2023-02-23T08:59:07;76.07;;;34.10;;
77740;SDS011;66919;51.006;4.630;2023-02-23T09:01:33;77.32;;;34.90;;
77740;SDS011;66919;51.006;4.630;2023-02-23T09:03:59;76.90;;;32.45;;
77740;SDS011;66919;51.006;4.630;2023-02-23T09:06:25;70.60;;;30.80;;
77740;SDS011;66919;51.006;4.630;2023-02-23T09:08:52;71.10;;;33.83;;
77740;SDS011;66919;51.006;4.630;2023-02-23T09:11:19;61.72;;;31.98;;
77740;SDS011;66919;51.006;4.630;2023-02-23T09:13:45;67.32;;;31.85;;
77740;SDS011;66919;51.006;4.630;2023-02-23T09:16:11;75.53;;;34.58;;
77740;SDS011;66919;51.006;4.630;2023-02-23T09:18:37;72.72;;;35.20;;
77740;SDS011;66919;51.006;4.630;2023-02-23T09:21:05;65.78;;;30.52;;
77740;SDS011;66919;51.006;4.630;2023-02-23T09:23:32;66.80;;;31.20;;
77740;SDS011;66919;51.006;4.630;2023-02-23T09:26:05;66.35;;;32.28;;
77740;SDS011;66919;51.006;4.630;2023-02-23T09:28:32;65.22;;;31.08;;
77740;SDS011;66919;51.006;4.630;2023-02-23T09:31:06;59.85;;;30.25;;
77740;SDS011;66919;51.006;4.630;2023-02-23T09:33:34;62.90;;;30.15;;
77740;SDS011;66919;51.006;4.630;2023-02-23T09:36:02;60.22;;;31.30;;
77740;SDS011;66919;51.006;4.630;2023-02-23T09:38:29;60.72;;;30.67;;
77740;SDS011;66919;51.006;4.630;2023-02-23T09:40:56;60.63;;;29.13;;
77740;SDS011;66919;51.006;4.630;2023-02-23T09:48:54;66.93;;;31.75;;
77740;SDS011;66919;51.006;4.630;2023-02-23T09:51:23;65.05;;;32.85;;
77740;SDS011;66919;51.006;4.630;2023-02-23T09:53:52;63.25;;;31.42;;
77740;SDS011;66919;51.006;4.630;2023-02-23T09:59:18;63.85;;;29.63;;
77740;SDS011;66919;51.006;4.630;2023-02-23T10:07:06;58.50;;;29.73;;
77740;SDS011;66919;51.006;4.630;2023-02-23T10:20:38;49.17;;;26.25;;
77740;SDS011;66919;51.006;4.630;2023-02-23T10:23:17;56.13;;;29.38;;
77740;SDS011;66919;51.006;4.630;2023-02-23T10:25:51;51.50;;;27.33;;
77740;SDS011;66919;51.006;4.630;2023-02-23T10:28:23;58.05;;;28.23;;
77740;SDS011;66919;51.006;4.630;2023-02-23T10:30:50;59.08;;;29.98;;
77740;SDS011;66919;51.006;4.630;2023-02-23T10:33:25;54.05;;;27.52;;
77740;SDS011;66919;51.006;4.630;2023-02-23T10:36:11;57.90;;;29.13;;
77740;SDS011;66919;51.006;4.630;2023-02-23T10:38:41;52.90;;;27.80;;
77740;SDS011;66919;51.006;4.630;2023-02-23T10:41:07;60.80;;;27.67;;
77740;SDS011;66919;51.006;4.630;2023-02-23T10:43:34;51.72;;;25.05;;
77740;SDS011;66919;51.006;4.630;2023-02-23T10:46:00;50.60;;;25.33;;
77740;SDS011;66919;51.006;4.630;2023-02-23T10:48:31;58.35;;;28.02;;
77740;SDS011;66919;51.006;4.630;2023-02-23T10:51:08;47.92;;;26.95;;
77740;SDS011;66919;51.006;4.630;2023-02-23T10:53:42;54.60;;;27.45;;
77740;SDS011;66919;51.006;4.630;2023-02-23T10:56:09;48.08;;;25.05;;
77740;SDS011;66919;51.006;4.630;2023-02-23T11:01:13;46.20;;;26.50;;
77740;SDS011;66919;51.006;4.630;2023-02-23T11:08:52;57.60;;;27.55;;
77740;SDS011;66919;51.006;4.630;2023-02-23T11:13:44;52.20;;;28.58;;
77740;SDS011;66919;51.006;4.630;2023-02-23T11:18:50;70.18;;;31.20;;
77740;SDS011;66919;51.006;4.630;2023-02-23T11:21:22;61.35;;;31.15;;
77740;SDS011;66919;51.006;4.630;2023-02-23T11:23:51;59.50;;;30.02;;
77740;SDS011;66919;51.006;4.630;2023-02-23T11:26:27;53.45;;;29.13;;
77740;SDS011;66919;51.006;4.630;2023-02-23T11:28:57;52.78;;;28.88;;
77740;SDS011;66919;51.006;4.630;2023-02-23T11:31:27;47.60;;;26.30;;
77740;SDS011;66919;51.006;4.630;2023-02-23T11:33:56;51.40;;;28.90;;
77740;SDS011;66919;51.006;4.630;2023-02-23T11:39:02;51.92;;;26.98;;
77740;SDS011;66919;51.006;4.630;2023-02-23T11:41:42;54.45;;;27.27;;
77740;SDS011;66919;51.006;4.630;2023-02-23T11:44:17;55.72;;;29.60;;
77740;SDS011;66919;51.006;4.630;2023-02-23T11:46:45;63.55;;;29.70;;
77740;SDS011;66919;51.006;4.630;2023-02-23T11:49:16;53.60;;;30.25;;
77740;SDS011;66919;51.006;4.630;2023-02-23T11:51:48;53.70;;;29.60;;
77740;SDS011;66919;51.006;4.630;2023-02-23T11:54:24;51.90;;;28.25;;
77740;SDS011;66919;51.006;4.630;2023-02-23T11:56:51;59.90;;;32.58;;
77740;SDS011;66919;51.006;4.630;2023-02-23T11:59:20;55.53;;;29.35;;
77740;SDS011;66919;51.006;4.630;2023-02-23T12:02:02;57.03;;;30.85;;
77740;SDS011;66919;51.006;4.630;2023-02-23T12:04:43;48.85;;;27.90;;
77740;SDS011;66919;51.006;4.630;2023-02-23T12:07:26;49.72;;;26.55;;
77740;SDS011;66919;51.006;4.630;2023-02-23T12:12:45;51.65;;;26.08;;
77740;SDS011;66919;51.006;4.630;2023-02-23T12:15:24;45.03;;;25.38;;
77740;SDS011;66919;51.006;4.630;2023-02-23T12:17:58;45.38;;;26.58;;
77740;SDS011;66919;51.006;4.630;2023-02-23T12:20:33;43.97;;;24.80;;
77740;SDS011;66919;51.006;4.630;2023-02-23T12:23:06;42.90;;;24.73;;
77740;SDS011;66919;51.006;4.630;2023-02-23T12:25:42;42.50;;;23.00;;
77740;SDS011;66919;51.006;4.630;2023-02-23T12:28:18;45.53;;;24.80;;
77740;SDS011;66919;51.006;4.630;2023-02-23T12:31:01;50.08;;;27.23;;
77740;SDS011;66919;51.006;4.630;2023-02-23T12:33:55;48.22;;;27.58;;
77740;SDS011;66919;51.006;4.630;2023-02-23T12:39:23;45.40;;;25.85;;
77740;SDS011;66919;51.006;4.630;2023-02-23T12:44:48;55.60;;;26.75;;
77740;SDS011;66919;51.006;4.630;2023-02-23T12:50:28;44.08;;;26.23;;
77740;SDS011;66919;51.006;4.630;2023-02-23T12:55:36;42.20;;;25.13;;
77740;SDS011;66919;51.006;4.630;2023-02-23T12:58:23;63.70;;;28.45;;
77740;SDS011;66919;51.006;4.630;2023-02-23T13:01:15;45.50;;;25.38;;
77740;SDS011;66919;51.006;4.630;2023-02-23T13:07:00;42.92;;;25.17;;
77740;SDS011;66919;51.006;4.630;2023-02-23T13:09:54;42.40;;;24.83;;
77740;SDS011;66919;51.006;4.630;2023-02-23T13:20:17;52.55;;;28.35;;
77740;SDS011;66919;51.006;4.630;2023-02-23T13:22:57;56.75;;;28.67;;
77740;SDS011;66919;51.006;4.630;2023-02-23T13:31:29;54.55;;;29.10;;
77740;SDS011;66919;51.006;4.630;2023-02-23T13:34:04;55.70;;;28.83;;
77740;SDS011;66919;51.006;4.630;2023-02-23T13:36:35;63.67;;;33.78;;
77740;SDS011;66919;51.006;4.630;2023-02-23T13:44:30;53.08;;;30.00;;
77740;SDS011;66919;51.006;4.630;2023-02-23T13:52:53;56.38;;;30.55;;
77740;SDS011;66919;51.006;4.630;2023-02-23T13:57:50;59.90;;;31.33;;
77740;SDS011;66919;51.006;4.630;2023-02-23T14:00:30;57.10;;;30.83;;
77740;SDS011;66919;51.006;4.630;2023-02-23T14:03:00;54.95;;;31.45;;
77740;SDS011;66919;51.006;4.630;2023-02-23T14:05:28;51.20;;;29.58;;
77740;SDS011;66919;51.006;4.630;2023-02-23T14:07:59;49.92;;;29.92;;
77740;SDS011;66919;51.006;4.630;2023-02-23T14:10:29;56.00;;;31.30;;
77740;SDS011;66919;51.006;4.630;2023-02-23T14:15:46;54.28;;;29.67;;
77740;SDS011;66919;51.006;4.630;2023-02-23T14:20:55;50.67;;;28.50;;
77740;SDS011;66919;51.006;4.630;2023-02-23T14:28:38;52.13;;;28.65;;
77740;SDS011;66919;51.006;4.630;2023-02-23T14:44:14;38.35;;;20.13;;
77740;SDS011;66919;51.006;4.630;2023-02-23T14:46:48;37.70;;;20.70;;
77740;SDS011;66919;51.006;4.630;2023-02-23T14:49:30;38.60;;;18.90;;
77740;SDS011;66919;51.006;4.630;2023-02-23T14:52:03;37.35;;;20.25;;
77740;SDS011;66919;51.006;4.630;2023-02-23T14:54:32;34.95;;;18.85;;
77740;SDS011;66919;51.006;4.630;2023-02-23T14:57:01;35.38;;;19.88;;
77740;SDS011;66919;51.006;4.630;2023-02-23T14:59:35;38.75;;;19.40;;
77740;SDS011;66919;51.006;4.630;2023-02-23T15:02:10;35.28;;;18.25;;
77740;SDS011;66919;51.006;4.630;2023-02-23T15:04:42;28.90;;;16.73;;
77740;SDS011;66919;51.006;4.630;2023-02-23T15:07:13;36.80;;;17.77;;
77740;SDS011;66919;51.006;4.630;2023-02-23T15:09:43;35.10;;;17.70;;
77740;SDS011;66919;51.006;4.630;2023-02-23T15:12:12;30.58;;;17.38;;
77740;SDS011;66919;51.006;4.630;2023-02-23T15:14:47;27.40;;;16.45;;
77740;SDS011;66919;51.006;4.630;2023-02-23T15:17:20;29.23;;;17.60;;
77740;SDS011;66919;51.006;4.630;2023-02-23T15:19:49;32.45;;;17.77;;
77740;SDS011;66919;51.006;4.630;2023-02-23T15:22:39;30.60;;;16.08;;
77740;SDS011;66919;51.006;4.630;2023-02-23T15:25:20;26.73;;;15.52;;
77740;SDS011;66919;51.006;4.630;2023-02-23T15:27:52;28.90;;;16.70;;
77740;SDS011;66919;51.006;4.630;2023-02-23T15:30:21;27.23;;;15.90;;
77740;SDS011;66919;51.006;4.630;2023-02-23T15:32:47;32.60;;;16.95;;
77740;SDS011;66919;51.006;4.630;2023-02-23T15:35:22;27.40;;;16.00;;
77740;SDS011;66919;51.006;4.630;2023-02-23T15:37:48;31.13;;;17.00;;
77740;SDS011;66919;51.006;4.630;2023-02-23T15:40:16;25.77;;;15.10;;
77740;SDS011;66919;51.006;4.630;2023-02-23T15:42:48;19.05;;;13.55;;
77740;SDS011;66919;51.006;4.630;2023-02-23T15:47:43;15.55;;;11.95;;
77740;SDS011;66919;51.006;4.630;2023-02-23T15:50:15;21.40;;;12.90;;
77740;SDS011;66919;51.006;4.630;2023-02-23T15:52:50;16.67;;;12.15;;
77740;SDS011;66919;51.006;4.630;2023-02-23T15:55:40;17.02;;;12.38;;
77740;SDS011;66919;51.006;4.630;2023-02-23T15:58:11;19.67;;;13.35;;
77740;SDS011;66919;51.006;4.630;2023-02-23T16:00:53;17.05;;;13.55;;
77740;SDS011;66919;51.006;4.630;2023-02-23T16:03:21;17.37;;;11.73;;
77740;SDS011;66919;51.006;4.630;2023-02-23T16:05:58;14.15;;;9.52;;
77740;SDS011;66919;51.006;4.630;2023-02-23T16:08:30;17.80;;;11.80;;
77740;SDS011;66919;51.006;4.630;2023-02-23T16:11:30;19.15;;;11.40;;
77740;SDS011;66919;51.006;4.630;2023-02-23T16:13:50;16.60;;;11.52;;
77740;SDS011;66919;51.006;4.630;2023-02-23T16:16:17;17.13;;;12.07;;
77740;SDS011;66919;51.006;4.630;2023-02-23T16:18:57;15.45;;;10.13;;
77740;SDS011;66919;51.006;4.630;2023-02-23T16:21:27;19.15;;;11.85;;
77740;SDS011;66919;51.006;4.630;2023-02-23T16:23:59;16.52;;;11.98;;
77740;SDS011;66919;51.006;4.630;2023-02-23T16:26:39;17.83;;;11.70;;
77740;SDS011;66919;51.006;4.630;2023-02-23T16:29:06;18.40;;;11.93;;
77740;SDS011;66919;51.006;4.630;2023-02-23T16:31:39;17.20;;;11.63;;
77740;SDS011;66919;51.006;4.630;2023-02-23T16:37:19;17.27;;;10.93;;
77740;SDS011;66919;51.006;4.630;2023-02-23T16:39:50;21.48;;;11.52;;
77740;SDS011;66919;51.006;4.630;2023-02-23T16:42:24;19.52;;;11.65;;
77740;SDS011;66919;51.006;4.630;2023-02-23T16:44:50;18.10;;;10.90;;
77740;SDS011;66919;51.006;4.630;2023-02-23T16:48:01;18.50;;;11.07;;
77740;SDS011;66919;51.006;4.630;2023-02-23T16:50:16;14.23;;;9.18;;
77740;SDS011;66919;51.006;4.630;2023-02-23T16:52:44;15.13;;;10.73;;
77740;SDS011;66919;51.006;4.630;2023-02-23T16:55:13;16.70;;;10.90;;
77740;SDS011;66919;51.006;4.630;2023-02-23T16:57:43;18.90;;;10.13;;
77740;SDS011;66919;51.006;4.630;2023-02-23T17:00:11;17.85;;;11.70;;
77740;SDS011;66919;51.006;4.630;2023-02-23T17:02:45;15.60;;;10.30;;
77740;SDS011;66919;51.006;4.630;2023-02-23T17:05:11;15.82;;;11.07;;
77740;SDS011;66919;51.006;4.630;2023-02-23T17:07:39;15.82;;;11.13;;
77740;SDS011;66919;51.006;4.630;2023-02-23T17:10:06;17.73;;;10.35;;
77740;SDS011;66919;51.006;4.630;2023-02-23T17:12:32;14.55;;;10.27;;
77740;SDS011;66919;51.006;4.630;2023-02-23T17:14:58;19.90;;;11.32;;
77740;SDS011;66919;51.006;4.630;2023-02-23T17:17:23;17.05;;;10.38;;
77740;SDS011;66919;51.006;4.630;2023-02-23T17:19:49;17.67;;;10.45;;
77740;SDS011;66919;51.006;4.630;2023-02-23T17:22:15;13.10;;;9.82;;
77740;SDS011;66919;51.006;4.630;2023-02-23T17:24:41;16.88;;;11.27;;
77740;SDS011;66919;51.006;4.630;2023-02-23T17:27:07;17.58;;;10.05;;
77740;SDS011;66919;51.006;4.630;2023-02-23T17:29:33;15.43;;;10.52;;
77740;SDS011;66919;51.006;4.630;2023-02-23T17:31:59;15.30;;;9.82;;
77740;SDS011;66919;51.006;4.630;2023-02-23T17:34:26;15.93;;;9.90;;